createdAt,value
2017-10-31T00:01:17.910Z,99186.34
2017-10-31T00:03:45.452Z,99182.33
2017-10-31T00:06:12.980Z,99189.97
2017-10-31T00:08:40.535Z,99187.52
2017-10-31T00:11:09.330Z,99196.20
2017-10-31T00:13:36.877Z,99189.30
2017-10-31T00:16:04.422Z,99188.27
2017-10-31T00:18:31.913Z,99182.39
2017-10-31T00:20:59.447Z,99183.72
2017-10-31T00:23:26.973Z,99186.72
2017-10-31T00:25:54.493Z,99187.34
2017-10-31T00:28:21.982Z,99188.08
2017-10-31T00:30:49.497Z,99185.63
2017-10-31T00:33:17.006Z,99189.88
2017-10-31T00:35:44.515Z,99187.11
2017-10-31T00:38:12.373Z,99184.39
2017-10-31T00:40:39.901Z,99188.55
2017-10-31T00:43:07.429Z,99191.23
2017-10-31T00:45:34.961Z,99191.61
2017-10-31T00:48:02.469Z,99193.02
2017-10-31T00:50:29.990Z,99192.47
2017-10-31T00:52:57.529Z,99195.21
2017-10-31T00:55:25.021Z,99196.45
2017-10-31T00:57:52.521Z,99188.09
2017-10-31T01:00:20.014Z,99188.95
2017-10-31T01:02:47.522Z,99188.09
2017-10-31T01:05:15.029Z,99187.68
2017-10-31T01:07:42.532Z,99184.33
2017-10-31T01:10:10.030Z,99180.31
2017-10-31T01:12:37.526Z,99184.38
2017-10-31T01:15:05.014Z,99179.50
2017-10-31T01:17:32.518Z,99175.25
2017-10-31T01:20:00.025Z,99175.50
2017-10-31T01:22:27.536Z,99176.45
2017-10-31T01:24:55.040Z,99175.50
2017-10-31T01:27:22.548Z,99175.30
2017-10-31T01:29:50.063Z,99181.42
2017-10-31T01:32:17.631Z,99170.70
2017-10-31T01:34:45.132Z,99174.25
2017-10-31T01:37:12.645Z,99171.69
2017-10-31T01:39:40.147Z,99167.92
2017-10-31T01:42:07.652Z,99165.39
2017-10-31T01:44:35.149Z,99166.34
2017-10-31T01:47:02.667Z,99162.91
2017-10-31T01:49:30.190Z,99157.06
2017-10-31T01:51:57.688Z,99163.28
2017-10-31T01:54:25.224Z,99165.44
2017-10-31T01:56:53.653Z,99166.59
2017-10-31T01:59:21.153Z,99164.15
2017-10-31T02:01:48.661Z,99165.43
2017-10-31T02:04:16.175Z,99167.75
2017-10-31T02:06:43.700Z,99165.17
2017-10-31T02:09:11.206Z,99161.37
2017-10-31T02:11:38.809Z,99166.16
2017-10-31T02:14:06.307Z,99165.76
2017-10-31T02:16:33.819Z,99164.14
2017-10-31T02:19:01.347Z,99167.16
2017-10-31T02:21:28.857Z,99165.80
2017-10-31T02:23:56.373Z,99163.64
2017-10-31T02:26:23.878Z,99164.30
2017-10-31T02:28:51.395Z,99157.52
2017-10-31T02:31:18.895Z,99160.34
2017-10-31T02:33:46.399Z,99159.18
2017-10-31T02:36:13.906Z,99149.77
2017-10-31T02:38:53.441Z,99149.03
2017-10-31T02:41:20.978Z,99148.36
2017-10-31T02:43:48.490Z,99152.70
2017-10-31T02:46:16.008Z,99153.95
2017-10-31T02:48:43.498Z,99154.42
2017-10-31T02:51:11.006Z,99151.42
2017-10-31T02:53:38.587Z,99150.43
2017-10-31T02:56:06.095Z,99154.27
2017-10-31T02:58:33.640Z,99149.06
2017-10-31T03:01:01.127Z,99149.27
2017-10-31T03:03:28.627Z,99157.51
2017-10-31T03:05:56.123Z,99155.34
2017-10-31T03:08:23.618Z,99159.48
2017-10-31T03:10:51.155Z,99155.74
2017-10-31T03:13:18.642Z,99157.75
2017-10-31T03:15:46.154Z,99150.55
2017-10-31T03:18:13.665Z,99154.67
2017-10-31T03:20:41.179Z,99159.03
2017-10-31T03:23:09.147Z,99150.77
2017-10-31T03:25:36.649Z,99153.34
2017-10-31T03:28:04.182Z,99153.53
2017-10-31T03:30:31.699Z,99157.75
2017-10-31T03:32:59.205Z,99160.19
2017-10-31T03:35:26.694Z,99153.06
2017-10-31T03:37:54.190Z,99163.47
2017-10-31T03:40:21.703Z,99157.55
2017-10-31T03:42:49.210Z,99162.80
2017-10-31T03:45:16.722Z,99164.69
2017-10-31T03:47:44.231Z,99165.41
2017-10-31T03:50:11.738Z,99163.16
2017-10-31T03:52:39.242Z,99164.03
2017-10-31T03:55:06.765Z,99165.63
2017-10-31T03:57:34.251Z,99163.46
2017-10-31T04:00:01.767Z,99169.41
2017-10-31T04:02:29.295Z,99170.79
2017-10-31T04:04:56.810Z,99173.55
2017-10-31T04:07:24.313Z,99172.02
2017-10-31T04:09:51.814Z,99177.71
2017-10-31T04:12:19.474Z,99180.22
2017-10-31T04:14:46.979Z,99178.33
2017-10-31T04:17:14.595Z,99178.57
2017-10-31T04:19:42.110Z,99174.12
2017-10-31T04:22:09.617Z,99168.52
2017-10-31T04:24:37.148Z,99177.03
2017-10-31T04:27:04.668Z,99179.70
2017-10-31T04:29:32.155Z,99178.64
2017-10-31T04:31:59.671Z,99168.45
2017-10-31T04:34:27.174Z,99173.03
2017-10-31T04:36:54.695Z,99165.66
2017-10-31T04:39:22.194Z,99171.80
2017-10-31T04:41:49.722Z,99167.28
2017-10-31T04:44:17.241Z,99171.97
2017-10-31T04:46:44.738Z,99169.80
2017-10-31T04:49:12.269Z,99159.06
2017-10-31T04:51:39.789Z,99162.04
2017-10-31T04:54:07.294Z,99161.86
2017-10-31T04:56:34.809Z,99156.34
2017-10-31T04:59:02.355Z,99154.59
2017-10-31T05:01:29.870Z,99158.80
2017-10-31T05:03:57.385Z,99163.62
2017-10-31T05:06:24.901Z,99163.55
2017-10-31T05:08:52.414Z,99159.00
2017-10-31T05:11:19.910Z,99150.91
2017-10-31T05:13:47.424Z,99151.70
2017-10-31T05:16:14.938Z,99146.17
2017-10-31T05:18:42.466Z,99151.77
2017-10-31T05:21:09.981Z,99149.04
2017-10-31T05:23:37.549Z,99150.06
2017-10-31T05:26:05.065Z,99141.95
2017-10-31T05:28:32.578Z,99130.58
2017-10-31T05:31:00.095Z,99131.23
2017-10-31T05:33:27.603Z,99139.70
2017-10-31T05:35:55.123Z,99137.55
2017-10-31T05:38:22.636Z,99133.63
2017-10-31T05:40:50.146Z,99141.24
2017-10-31T05:43:17.674Z,99134.99
2017-10-31T05:45:45.198Z,99139.28
2017-10-31T05:48:12.750Z,99148.28
2017-10-31T05:50:40.244Z,99149.80
2017-10-31T05:53:07.761Z,99152.33
2017-10-31T05:55:35.276Z,99145.65
2017-10-31T05:58:02.784Z,99150.64
2017-10-31T06:00:30.402Z,99160.61
2017-10-31T06:02:57.913Z,99152.05
2017-10-31T06:05:25.429Z,99158.91
2017-10-31T06:07:52.946Z,99161.22
2017-10-31T06:10:20.440Z,99162.55
2017-10-31T06:12:47.957Z,99170.70
2017-10-31T06:15:15.456Z,99166.02
2017-10-31T06:17:42.957Z,99173.93
2017-10-31T06:20:10.458Z,99167.77
2017-10-31T06:25:47.773Z,99179.14
2017-10-31T06:28:20.850Z,99179.98
2017-10-31T06:30:54.050Z,99178.59
2017-10-31T06:33:21.553Z,99182.47
2017-10-31T06:35:49.081Z,99184.89
2017-10-31T06:38:16.595Z,99174.60
2017-10-31T06:40:44.106Z,99183.16
2017-10-31T06:43:11.625Z,99185.11
2017-10-31T06:45:39.141Z,99188.73
2017-10-31T06:48:06.689Z,99192.70
2017-10-31T06:50:34.193Z,99181.69
2017-10-31T06:53:01.689Z,99187.05
2017-10-31T06:55:29.222Z,99180.62
2017-10-31T06:57:56.743Z,99190.94
2017-10-31T07:00:24.267Z,99191.81
2017-10-31T07:02:51.784Z,99184.87
2017-10-31T07:05:19.327Z,99176.83
2017-10-31T07:07:46.856Z,99183.33
2017-10-31T07:10:14.362Z,99183.38
2017-10-31T07:12:41.871Z,99191.25
2017-10-31T07:15:09.365Z,99189.58
2017-10-31T07:17:36.878Z,99189.05
2017-10-31T07:20:04.427Z,99195.59
2017-10-31T07:22:31.946Z,99193.83
2017-10-31T07:24:59.467Z,99199.32
2017-10-31T07:27:26.986Z,99195.87
2017-10-31T07:29:54.492Z,99192.80
2017-10-31T07:32:21.999Z,99196.24
2017-10-31T07:34:49.526Z,99196.28
2017-10-31T07:37:17.045Z,99194.52
2017-10-31T07:39:44.541Z,99193.02
2017-10-31T07:42:12.034Z,99195.25
2017-10-31T07:44:39.539Z,99194.04
2017-10-31T07:47:07.035Z,99191.31
2017-10-31T07:49:34.524Z,99188.74
2017-10-31T07:52:02.017Z,99199.27
2017-10-31T07:54:29.510Z,99200.79
2017-10-31T07:56:57.002Z,99202.89
2017-10-31T07:59:24.503Z,99203.79
2017-10-31T08:01:52.008Z,99201.46
2017-10-31T08:04:19.514Z,99198.77
2017-10-31T08:06:47.025Z,99202.95
2017-10-31T08:09:14.544Z,99203.98
2017-10-31T08:11:42.047Z,99204.80
2017-10-31T08:14:09.557Z,99205.09
2017-10-31T08:16:37.056Z,99200.39
2017-10-31T08:19:04.576Z,99205.09
2017-10-31T08:21:32.068Z,99203.68
2017-10-31T08:23:59.558Z,99209.45
2017-10-31T08:26:27.078Z,99209.45
2017-10-31T08:28:54.596Z,99204.70
2017-10-31T08:31:22.163Z,99211.66
2017-10-31T08:33:49.671Z,99219.96
2017-10-31T08:36:17.177Z,99210.91
2017-10-31T08:38:44.677Z,99217.48
2017-10-31T08:41:12.178Z,99217.56
2017-10-31T08:43:39.669Z,99212.03
2017-10-31T08:46:07.177Z,99208.56
2017-10-31T08:48:34.679Z,99212.47
2017-10-31T08:51:02.179Z,99213.78
2017-10-31T08:53:29.673Z,99211.17
2017-10-31T08:55:57.154Z,99215.61
2017-10-31T08:58:31.261Z,99209.23
2017-10-31T09:00:58.773Z,99209.97
2017-10-31T09:03:26.278Z,99211.77
2017-10-31T09:05:53.789Z,99220.48
2017-10-31T09:08:21.293Z,99210.97
2017-10-31T09:10:48.777Z,99219.27
2017-10-31T09:13:16.356Z,99213.89
2017-10-31T09:15:43.864Z,99211.66
2017-10-31T09:18:11.358Z,99208.24
2017-10-31T09:20:38.850Z,99204.70
2017-10-31T09:23:06.364Z,99209.75
2017-10-31T09:25:33.875Z,99207.89
2017-10-31T09:28:01.389Z,99198.88
2017-10-31T09:30:28.961Z,99206.41
2017-10-31T09:32:56.449Z,99203.73
2017-10-31T09:35:23.978Z,99193.34
2017-10-31T09:37:51.496Z,99200.28
2017-10-31T09:40:19.007Z,99189.73
2017-10-31T09:42:46.511Z,99195.73
2017-10-31T09:45:14.038Z,99192.77
2017-10-31T09:47:41.546Z,99197.04
2017-10-31T09:50:09.047Z,99198.08
2017-10-31T09:52:36.533Z,99194.63
2017-10-31T09:55:04.057Z,99190.05
2017-10-31T09:57:31.657Z,99186.34
2017-10-31T09:59:59.197Z,99188.27
2017-10-31T10:02:26.738Z,99180.11
2017-10-31T10:04:54.241Z,99177.64
2017-10-31T10:07:21.758Z,99181.47
2017-10-31T10:09:49.266Z,99179.82
2017-10-31T10:12:16.777Z,99179.05
2017-10-31T10:14:44.405Z,99171.62
2017-10-31T10:17:11.971Z,99178.13
2017-10-31T10:19:39.471Z,99176.23
2017-10-31T10:22:07.002Z,99173.83
2017-10-31T10:24:34.556Z,99184.16
2017-10-31T10:27:02.060Z,99172.72
2017-10-31T10:29:29.646Z,99167.94
2017-10-31T10:31:57.153Z,99164.38
2017-10-31T10:34:24.658Z,99162.97
2017-10-31T10:36:52.167Z,99161.58
2017-10-31T10:39:20.676Z,99160.22
2017-10-31T10:41:48.189Z,99156.13
2017-10-31T10:44:15.829Z,99162.29
2017-10-31T10:46:43.341Z,99159.92
2017-10-31T10:49:10.848Z,99159.92
2017-10-31T10:51:38.374Z,99162.63
2017-10-31T10:54:05.878Z,99155.74
2017-10-31T10:56:33.393Z,99146.23
2017-10-31T10:59:00.940Z,99151.75
2017-10-31T11:01:28.434Z,99148.36
2017-10-31T11:03:55.986Z,99142.80
2017-10-31T11:06:23.520Z,99142.64
2017-10-31T11:08:51.043Z,99141.15
2017-10-31T11:11:18.553Z,99135.73
2017-10-31T11:13:46.055Z,99139.08
2017-10-31T11:16:13.573Z,99128.80
2017-10-31T11:18:41.123Z,99135.80
2017-10-31T11:21:08.651Z,99130.33
2017-10-31T11:23:36.172Z,99129.40
2017-10-31T11:26:03.693Z,99128.89
2017-10-31T11:28:31.212Z,99124.33
2017-10-31T11:30:58.713Z,99113.72
2017-10-31T11:33:26.223Z,99112.02
2017-10-31T11:35:53.772Z,99110.48
2017-10-31T11:38:21.267Z,99112.36
2017-10-31T11:40:48.777Z,99102.94
2017-10-31T11:43:16.302Z,99102.80
2017-10-31T11:45:43.817Z,99094.36
2017-10-31T11:48:11.693Z,99098.02
2017-10-31T11:50:39.192Z,99101.80
2017-10-31T11:53:06.719Z,99088.05
2017-10-31T11:55:34.221Z,99087.25
2017-10-31T11:58:01.761Z,99088.22
2017-10-31T12:00:29.332Z,99080.55
2017-10-31T12:02:56.837Z,99084.14
2017-10-31T12:05:24.449Z,99078.97
2017-10-31T12:07:52.909Z,99072.45
2017-10-31T12:10:20.404Z,99068.95
2017-10-31T12:12:47.934Z,99068.86
2017-10-31T12:15:15.463Z,99069.59
2017-10-31T12:17:43.066Z,99071.03
2017-10-31T12:20:10.569Z,99070.45
2017-10-31T12:22:38.108Z,99069.81
2017-10-31T12:25:05.625Z,99067.02
2017-10-31T12:27:33.111Z,99068.72
2017-10-31T12:30:00.622Z,99068.79
2017-10-31T12:32:28.126Z,99068.62
2017-10-31T12:34:55.639Z,99065.23
2017-10-31T12:37:23.143Z,99066.55
2017-10-31T12:39:50.647Z,99064.27
2017-10-31T12:42:18.147Z,99062.86
2017-10-31T12:44:45.647Z,99057.12
2017-10-31T12:47:13.159Z,99055.52
2017-10-31T12:49:40.666Z,99059.69
2017-10-31T12:52:08.189Z,99054.56
2017-10-31T12:54:35.685Z,99048.98
2017-10-31T12:57:03.245Z,99051.20
2017-10-31T12:59:30.743Z,99045.94
2017-10-31T13:01:58.243Z,99046.18
2017-10-31T13:04:25.742Z,99051.75
2017-10-31T13:06:53.270Z,99051.23
2017-10-31T13:09:20.781Z,99053.33
2017-10-31T13:11:48.290Z,99046.63
2017-10-31T13:14:15.813Z,99046.71
2017-10-31T13:16:43.325Z,99048.08
2017-10-31T13:19:10.859Z,99038.16
2017-10-31T13:21:38.393Z,99038.78
2017-10-31T13:24:05.941Z,99030.34
2017-10-31T13:26:34.354Z,99035.13
2017-10-31T13:29:02.800Z,99033.73
2017-10-31T13:31:31.130Z,99033.61
2017-10-31T13:33:59.503Z,99032.30
2017-10-31T13:36:27.610Z,99025.21
2017-10-31T13:38:56.022Z,99025.14
2017-10-31T13:41:24.526Z,99023.54
2017-10-31T13:43:52.951Z,99017.52
2017-10-31T13:46:20.509Z,99016.80
2017-10-31T13:48:48.195Z,99022.82
2017-10-31T13:51:16.659Z,99024.98
2017-10-31T13:53:44.196Z,99027.01
2017-10-31T13:56:11.729Z,99015.56
2017-10-31T13:58:39.391Z,99014.50
2017-10-31T14:01:07.088Z,99019.13
2017-10-31T14:03:34.813Z,99016.79
2017-10-31T14:06:03.193Z,99015.95
2017-10-31T14:08:31.686Z,99019.37
2017-10-31T14:10:59.763Z,99005.58
2017-10-31T14:13:27.322Z,99005.52
2017-10-31T14:15:54.918Z,99001.53
2017-10-31T14:18:22.485Z,99003.07
2017-10-31T14:20:50.717Z,98997.47
2017-10-31T14:23:18.290Z,98990.13
2017-10-31T14:25:45.851Z,98980.94
2017-10-31T14:28:13.424Z,98984.86
2017-10-31T14:30:40.978Z,98982.91
2017-10-31T14:33:08.551Z,98981.58
2017-10-31T14:35:36.125Z,98982.42
2017-10-31T14:38:03.666Z,98979.93
2017-10-31T14:40:31.215Z,98977.28
2017-10-31T14:42:58.748Z,98982.31
2017-10-31T14:45:26.291Z,98983.55
2017-10-31T14:47:53.836Z,98980.81
2017-10-31T14:50:21.498Z,98984.11
2017-10-31T14:52:49.039Z,98974.61
2017-10-31T14:55:16.747Z,98976.52
2017-10-31T14:57:44.289Z,98980.04
2017-10-31T15:00:11.843Z,98979.27
2017-10-31T15:02:39.539Z,98979.66
2017-10-31T15:05:07.206Z,98973.02
2017-10-31T15:07:34.738Z,98968.48
2017-10-31T15:10:02.284Z,98972.31
2017-10-31T15:12:29.849Z,98967.31
2017-10-31T15:14:57.408Z,98958.41
2017-10-31T15:17:24.946Z,98956.67
2017-10-31T15:19:52.504Z,98955.65
2017-10-31T15:22:20.073Z,98960.08
2017-10-31T15:24:47.649Z,98959.36
2017-10-31T15:27:15.231Z,98962.31
2017-10-31T15:29:42.787Z,98965.47
2017-10-31T15:32:10.505Z,98964.41
2017-10-31T15:34:38.066Z,98966.02
2017-10-31T15:37:05.671Z,98961.43
2017-10-31T15:39:33.211Z,98963.98
2017-10-31T15:42:00.745Z,98963.42
2017-10-31T15:44:28.282Z,98960.23
2017-10-31T15:46:55.862Z,98958.69
2017-10-31T15:49:23.405Z,98953.05
2017-10-31T15:51:50.945Z,98965.56
2017-10-31T15:54:18.522Z,98955.22
2017-10-31T15:56:46.079Z,98964.92
2017-10-31T15:59:13.603Z,98971.59
2017-10-31T16:01:41.218Z,98964.75
2017-10-31T16:04:08.887Z,98971.05
2017-10-31T16:06:36.452Z,98965.09
2017-10-31T16:09:04.032Z,98962.64
2017-10-31T16:11:31.606Z,98960.95
2017-10-31T16:13:59.256Z,98964.91
2017-10-31T16:16:26.801Z,98967.17
2017-10-31T16:18:54.361Z,98977.15
2017-10-31T16:21:21.997Z,98978.23
2017-10-31T16:23:49.541Z,98982.51
2017-10-31T16:26:17.096Z,98983.30
2017-10-31T16:28:45.845Z,98992.97
2017-10-31T16:31:13.409Z,98987.89
2017-10-31T16:33:40.974Z,98988.36
2017-10-31T16:36:08.505Z,99000.91
2017-10-31T16:38:36.045Z,99006.15
2017-10-31T16:41:03.588Z,99006.42
2017-10-31T16:43:31.145Z,99004.44
2017-10-31T16:45:58.677Z,99001.24
2017-10-31T16:48:26.220Z,99009.72
2017-10-31T16:50:53.833Z,99008.89
2017-10-31T16:53:21.417Z,99002.66
2017-10-31T16:55:48.986Z,99002.66
2017-10-31T16:58:16.538Z,99002.55
2017-10-31T17:00:44.107Z,98999.41
2017-10-31T17:03:11.870Z,98997.30
2017-10-31T17:05:39.446Z,98996.84
2017-10-31T17:08:07.043Z,98999.25
2017-10-31T17:10:34.652Z,99000.73
2017-10-31T17:13:02.204Z,99008.43
2017-10-31T17:15:29.782Z,99005.56
2017-10-31T17:17:57.361Z,99007.75
2017-10-31T17:20:24.927Z,98996.22
2017-10-31T17:22:52.453Z,98999.17
2017-10-31T17:25:20.106Z,99003.59
2017-10-31T17:27:47.650Z,99008.25
2017-10-31T17:30:15.193Z,99008.11
2017-10-31T17:32:42.737Z,99006.73
2017-10-31T17:35:10.283Z,99016.73
2017-10-31T17:37:37.829Z,99015.25
2017-10-31T17:40:05.369Z,99011.58
2017-10-31T17:42:33.013Z,99010.86
2017-10-31T17:45:00.689Z,99020.27
2017-10-31T17:47:28.250Z,99021.55
2017-10-31T17:49:55.854Z,99014.66
2017-10-31T17:52:23.396Z,99016.64
2017-10-31T17:54:50.944Z,99014.19
2017-10-31T17:57:18.506Z,99012.44
2017-10-31T17:59:46.130Z,99010.28
2017-10-31T18:02:13.754Z,99012.63
2017-10-31T18:04:41.413Z,99009.13
2017-10-31T18:07:08.952Z,99010.25
2017-10-31T18:09:36.501Z,99018.95
2017-10-31T18:12:04.133Z,99011.17
2017-10-31T18:14:31.675Z,99012.69
2017-10-31T18:16:59.200Z,99013.49
2017-10-31T18:19:26.756Z,99011.91
2017-10-31T18:21:54.307Z,99016.70
2017-10-31T18:24:21.845Z,99025.80
2017-10-31T18:26:49.427Z,99019.77
2017-10-31T18:29:16.983Z,99027.85
2017-10-31T18:31:44.567Z,99024.21
2017-10-31T18:34:12.112Z,99028.67
2017-10-31T18:36:39.715Z,99021.72
2017-10-31T18:39:07.307Z,99021.99
2017-10-31T18:41:34.856Z,99025.83
2017-10-31T18:44:02.414Z,99014.89
2017-10-31T18:46:29.977Z,99028.45
2017-10-31T18:48:57.508Z,99023.62
2017-10-31T18:51:25.073Z,99026.57
2017-10-31T18:53:52.622Z,99020.41
2017-10-31T18:56:20.154Z,99015.17
2017-10-31T18:58:47.682Z,99010.49
2017-10-31T19:01:15.218Z,99016.61
2017-10-31T19:03:42.778Z,99011.92
2017-10-31T19:06:10.338Z,99000.59
2017-10-31T19:08:37.885Z,99003.30
2017-10-31T19:11:05.553Z,98998.48
2017-10-31T19:13:33.095Z,99006.66
2017-10-31T19:16:00.643Z,99016.72
2017-10-31T19:18:28.218Z,99014.02
2017-10-31T19:20:55.753Z,99017.20
2017-10-31T19:23:23.399Z,99018.24
2017-10-31T19:25:50.926Z,99018.28
2017-10-31T19:28:18.467Z,99016.48
2017-10-31T19:30:46.022Z,99022.62
2017-10-31T19:33:13.563Z,99026.44
2017-10-31T19:35:41.129Z,99020.70
2017-10-31T19:38:08.676Z,99025.73
2017-10-31T19:40:36.218Z,99017.72
2017-10-31T19:43:03.765Z,99010.90
2017-10-31T19:45:31.430Z,99015.63
2017-10-31T19:47:58.985Z,99015.14
2017-10-31T19:50:26.558Z,99005.39
2017-10-31T19:52:54.131Z,99005.08
2017-10-31T19:55:21.673Z,99009.79
2017-10-31T19:57:49.252Z,99016.67
2017-10-31T20:00:16.802Z,99014.34
2017-10-31T20:02:44.349Z,99015.50
2017-10-31T20:05:11.910Z,99018.70
2017-10-31T20:07:39.445Z,99024.22
2017-10-31T20:10:06.976Z,99024.81
2017-10-31T20:12:34.515Z,99037.73
2017-10-31T20:15:02.070Z,99042.13
2017-10-31T20:17:29.615Z,99031.81
2017-10-31T20:19:57.173Z,99026.49
2017-10-31T20:22:24.722Z,99038.32
2017-10-31T20:24:52.270Z,99040.48
2017-10-31T20:27:19.834Z,99041.55
2017-10-31T20:29:47.406Z,99044.81
2017-10-31T20:32:14.972Z,99040.12
2017-10-31T20:34:42.539Z,99040.17
2017-10-31T20:37:10.110Z,99041.02
2017-10-31T20:39:37.673Z,99038.28
2017-10-31T20:42:05.800Z,99041.69
2017-10-31T20:44:33.394Z,99040.01
2017-10-31T20:47:00.931Z,99040.44
2017-10-31T20:49:28.477Z,99036.70
2017-10-31T20:51:56.027Z,99030.41
2017-10-31T20:54:23.627Z,99032.87
2017-10-31T20:56:51.195Z,99030.67
2017-10-31T20:59:18.741Z,99034.21
2017-10-31T21:01:46.270Z,99032.77
2017-10-31T21:04:13.918Z,99030.12
2017-10-31T21:06:41.477Z,99023.42
2017-10-31T21:09:09.028Z,99013.62
2017-10-31T21:11:36.741Z,99010.82
2017-10-31T21:14:04.281Z,99015.34
2017-10-31T21:16:31.834Z,99012.34
2017-10-31T21:18:59.519Z,99004.42
2017-10-31T21:21:27.080Z,99006.62
2017-10-31T21:23:54.634Z,99003.88
2017-10-31T21:26:22.167Z,99006.06
2017-10-31T21:28:49.755Z,99001.11
2017-10-31T21:31:17.288Z,99004.10
2017-10-31T21:33:44.850Z,99001.27
2017-10-31T21:36:12.403Z,99005.01
2017-10-31T21:38:39.959Z,99002.95
2017-10-31T21:41:07.489Z,99003.54
2017-10-31T21:43:35.036Z,98999.77
2017-10-31T21:46:02.578Z,99003.39
2017-10-31T21:48:30.128Z,98996.23
2017-10-31T21:50:57.659Z,99000.64
2017-10-31T21:53:25.209Z,98998.05
2017-10-31T21:55:52.767Z,98990.73
2017-10-31T21:58:20.322Z,98991.56
2017-10-31T22:00:47.874Z,98994.67
2017-10-31T22:03:15.410Z,98986.20
2017-10-31T22:05:42.954Z,98984.91
2017-10-31T22:08:10.492Z,98991.50
2017-10-31T22:10:38.155Z,98980.91
2017-10-31T22:13:05.745Z,98979.05
2017-10-31T22:15:33.289Z,98984.22
2017-10-31T22:18:00.839Z,98987.92
2017-10-31T22:20:28.380Z,98981.13
2017-10-31T22:22:55.933Z,98979.55
2017-10-31T22:25:23.482Z,98972.64
2017-10-31T22:27:51.017Z,98979.83
2017-10-31T22:30:18.553Z,98973.70
2017-10-31T22:32:46.101Z,98965.80
2017-10-31T22:35:13.657Z,98970.98
2017-10-31T22:37:41.254Z,98964.15
2017-10-31T22:40:08.788Z,98963.59
2017-10-31T22:42:36.339Z,98961.66
2017-10-31T22:45:03.895Z,98965.19
2017-10-31T22:47:31.597Z,98964.92
2017-10-31T22:49:59.147Z,98964.34
2017-10-31T22:52:26.723Z,98959.59
2017-10-31T22:54:54.290Z,98963.48
2017-10-31T22:57:22.683Z,98961.27
2017-10-31T22:59:50.249Z,98967.33
2017-10-31T23:02:17.912Z,98956.91
2017-10-31T23:04:45.455Z,98952.56
2017-10-31T23:07:12.986Z,98949.78
2017-10-31T23:09:40.542Z,98949.27
2017-10-31T23:12:08.092Z,98950.14
2017-10-31T23:14:35.686Z,98952.30
2017-10-31T23:17:03.234Z,98955.09
2017-10-31T23:19:30.787Z,98949.46
2017-10-31T23:21:58.318Z,98951.42
2017-10-31T23:24:25.878Z,98957.77
2017-10-31T23:26:53.429Z,98950.02
2017-10-31T23:29:20.990Z,98945.60
2017-10-31T23:31:48.541Z,98940.56
2017-10-31T23:34:16.079Z,98944.03
2017-10-31T23:36:43.621Z,98940.55
2017-10-31T23:39:11.164Z,98949.56
2017-10-31T23:41:38.716Z,98952.55
2017-10-31T23:44:06.259Z,98945.37
2017-10-31T23:46:33.845Z,98946.48
2017-10-31T23:49:01.402Z,98943.48
2017-10-31T23:51:28.931Z,98944.36
2017-10-31T23:53:56.497Z,98936.44
2017-10-31T23:56:24.046Z,98936.59
2017-10-31T23:58:51.600Z,98931.42
